Time;durP1;ratioP1;P1;durP2;ratioP2;P2;SDS_P1;SDS_P2;PMS_P1;PMS_P2;Temp;Humidity;BMP_temperature;BMP_pressure;BME280_temperature;BME280_humidity;BME280_pressure;Samples;Min_cycle;Max_cycle;Signal;HPM_P1;HPM_P2
2023/05/31 00:01:11;;;;;;;9.18;5.07;;;21.80;62.10;;;;;;5115837;28;20107;-78
2023/05/31 00:03:40;;;;;;;8.55;5.15;;;21.70;62.60;;;;;;5115784;28;20042;-81
2023/05/31 00:06:07;;;;;;;11.32;5.28;;;21.70;62.70;;;;;;5115948;28;20023;-77
2023/05/31 00:08:33;;;;;;;7.10;4.82;;;21.60;62.80;;;;;;5115744;28;20077;-75
2023/05/31 00:10:58;;;;;;;9.70;5.68;;;21.60;62.60;;;;;;5115323;28;20032;-79
2023/05/31 00:13:24;;;;;;;10.48;5.10;;;21.60;62.60;;;;;;5115585;28;20055;-77
2023/05/31 00:15:49;;;;;;;9.25;5.03;;;21.60;63.10;;;;;;5115383;28;20028;-79
2023/05/31 00:18:15;;;;;;;9.98;5.18;;;21.40;63.30;;;;;;5115706;28;20471;-79
2023/05/31 00:20:41;;;;;;;9.15;5.00;;;21.40;63.80;;;;;;5115616;28;20059;-80
2023/05/31 00:23:06;;;;;;;8.23;5.20;;;21.40;63.90;;;;;;5115011;28;20118;-73
2023/05/31 00:25:32;;;;;;;8.27;5.05;;;21.30;63.80;;;;;;5115202;28;20024;-78
2023/05/31 00:27:58;;;;;;;7.65;5.40;;;21.30;63.90;;;;;;5115230;28;20031;-76
2023/05/31 00:30:23;;;;;;;10.45;5.22;;;21.30;64.20;;;;;;5115447;28;20443;-75
2023/05/31 00:32:49;;;;;;;11.80;5.53;;;21.20;64.00;;;;;;5115339;28;20051;-79
2023/05/31 00:35:15;;;;;;;9.43;5.57;;;21.20;64.50;;;;;;5115197;28;20361;-78
2023/05/31 00:37:41;;;;;;;8.55;4.97;;;21.20;64.40;;;;;;5115090;28;20031;-78
2023/05/31 00:40:07;;;;;;;12.07;5.07;;;21.10;64.30;;;;;;5114804;28;20023;-78
2023/05/31 00:42:33;;;;;;;12.63;5.15;;;21.10;64.60;;;;;;5096909;28;20383;-80
2023/05/31 00:44:59;;;;;;;8.75;5.05;;;21.00;64.60;;;;;;5114762;28;20019;-76
2023/05/31 00:47:28;;;;;;;12.30;5.30;;;20.90;64.00;;;;;;5114933;28;20486;-74
2023/05/31 00:49:55;;;;;;;8.80;5.18;;;20.90;64.60;;;;;;5114752;28;20023;-76
2023/05/31 00:52:21;;;;;;;10.70;5.20;;;20.90;65.30;;;;;;5115070;28;20023;-77
2023/05/31 00:54:47;;;;;;;12.18;5.35;;;20.80;65.10;;;;;;5114924;28;20106;-74
2023/05/31 00:57:13;;;;;;;7.25;5.20;;;20.80;64.30;;;;;;5114815;28;20019;-72
2023/05/31 00:59:39;;;;;;;7.75;5.00;;;20.80;65.10;;;;;;5111533;28;20134;-72
2023/05/31 01:02:06;;;;;;;8.43;4.60;;;20.80;65.10;;;;;;5111579;28;20099;-78
2023/05/31 01:04:32;;;;;;;11.00;4.80;;;20.80;64.50;;;;;;5112712;28;20027;-80
2023/05/31 01:07:00;;;;;;;16.02;5.03;;;20.80;63.30;;;;;;5113532;28;20093;-78
2023/05/31 01:09:28;;;;;;;10.52;5.40;;;20.70;64.10;;;;;;5114665;28;20023;-81
2023/05/31 01:12:42;;;;;;;10.30;5.65;;;20.70;64.30;;;;;;5114340;28;20037;-76
2023/05/31 01:15:19;;;;;;;8.60;5.03;;;20.70;64.30;;;;;;5058252;28;20043;-78
2023/05/31 01:18:10;;;;;;;8.20;5.40;;;20.70;64.00;;;;;;5114068;28;20089;-78
2023/05/31 01:20:39;;;;;;;12.05;5.05;;;20.70;64.00;;;;;;5113803;28;20042;-74
2023/05/31 01:23:53;;;;;;;8.75;5.00;;;20.60;63.60;;;;;;5114205;28;20419;-76
2023/05/31 01:26:41;;;;;;;7.10;4.20;;;20.60;63.10;;;;;;5113951;28;20027;-74
2023/05/31 01:29:16;;;;;;;10.13;4.75;;;20.60;62.20;;;;;;5113645;28;20356;-73
2023/05/31 01:31:45;;;;;;;12.10;4.93;;;20.60;62.00;;;;;;5114063;28;20023;-79
2023/05/31 01:34:12;;;;;;;9.05;4.40;;;20.60;62.00;;;;;;5113938;28;20433;-77
2023/05/31 01:36:38;;;;;;;7.88;4.38;;;20.60;62.00;;;;;;5113638;28;20061;-80
2023/05/31 01:39:04;;;;;;;9.18;4.50;;;20.60;62.00;;;;;;5113913;28;20031;-77
2023/05/31 01:41:40;;;;;;;10.77;4.35;;;20.60;62.10;;;;;;5113393;28;20028;-79
2023/05/31 01:44:07;;;;;;;6.63;4.00;;;20.60;61.90;;;;;;5113424;28;20057;-79
2023/05/31 01:46:33;;;;;;;5.97;4.05;;;20.60;61.40;;;;;;5114212;28;20050;-80
2023/05/31 01:49:01;;;;;;;12.57;4.95;;;20.50;61.40;;;;;;5113550;28;20472;-79
2023/05/31 01:51:30;;;;;;;11.93;4.40;;;20.60;61.50;;;;;;5113396;28;20030;-78
2023/05/31 01:53:56;;;;;;;9.75;4.70;;;20.50;61.00;;;;;;5113241;28;20016;-75
2023/05/31 01:56:23;;;;;;;9.98;5.07;;;20.50;60.60;;;;;;5113286;28;20038;-75
2023/05/31 01:58:51;;;;;;;11.02;5.07;;;20.50;60.70;;;;;;5113310;28;20026;-80
2023/05/31 02:01:18;;;;;;;7.05;4.60;;;20.50;61.00;;;;;;5113443;28;20073;-79
2023/05/31 02:03:44;;;;;;;9.57;4.63;;;20.50;61.90;;;;;;5113257;28;20066;-80
2023/05/31 02:06:13;;;;;;;12.40;4.80;;;20.50;62.10;;;;;;5113726;28;20051;-79
2023/05/31 02:08:40;;;;;;;7.20;3.90;;;20.40;61.90;;;;;;5113619;28;20019;-76
2023/05/31 02:11:06;;;;;;;7.65;4.57;;;20.40;61.80;;;;;;5113359;28;20030;-77
2023/05/31 02:13:33;;;;;;;10.07;4.47;;;20.30;61.80;;;;;;5113299;28;20031;-77
2023/05/31 02:15:59;;;;;;;10.65;4.45;;;20.40;61.60;;;;;;5094917;28;20019;-78
2023/05/31 02:18:28;;;;;;;10.82;4.22;;;20.40;61.40;;;;;;5113253;28;20364;-79
2023/05/31 02:20:54;;;;;;;9.48;4.20;;;20.30;61.50;;;;;;5113522;28;20028;-74
2023/05/31 02:23:20;;;;;;;7.07;4.05;;;20.30;61.00;;;;;;5113216;28;20070;-77
2023/05/31 02:25:50;;;;;;;5.60;3.58;;;20.30;61.10;;;;;;5113170;28;20015;-77
2023/05/31 02:28:16;;;;;;;7.07;3.60;;;20.30;60.80;;;;;;5113270;28;20493;-77
2023/05/31 02:30:53;;;;;;;9.13;4.38;;;20.30;61.20;;;;;;5113152;28;20386;-79
2023/05/31 02:33:20;;;;;;;10.90;4.53;;;20.30;60.60;;;;;;5113139;28;20016;-77
2023/05/31 02:35:45;;;;;;;7.20;4.50;;;20.30;60.50;;;;;;5113306;28;20027;-77
2023/05/31 02:38:11;;;;;;;6.55;3.83;;;20.30;60.30;;;;;;5113167;28;20035;-76
2023/05/31 02:40:37;;;;;;;7.70;3.90;;;20.30;60.60;;;;;;5113016;28;20112;-80
2023/05/31 02:43:02;;;;;;;6.82;3.90;;;20.30;60.60;;;;;;5113037;28;20066;-76
2023/05/31 02:45:28;;;;;;;6.32;4.00;;;20.30;61.00;;;;;;5113094;28;20024;-78
2023/05/31 02:47:54;;;;;;;11.63;4.13;;;20.30;60.80;;;;;;5112804;28;20126;-77
2023/05/31 02:50:20;;;;;;;11.25;4.53;;;20.30;60.70;;;;;;5113032;28;20027;-77
2023/05/31 02:52:46;;;;;;;7.65;4.07;;;20.30;60.80;;;;;;5113202;28;20026;-73
2023/05/31 02:55:11;;;;;;;9.15;4.10;;;20.30;61.70;;;;;;5112985;28;20398;-76
2023/05/31 02:57:37;;;;;;;9.43;4.68;;;20.30;62.30;;;;;;5113349;28;20435;-76
2023/05/31 03:00:10;;;;;;;5.57;4.20;;;20.30;62.50;;;;;;5113074;28;20023;-78
2023/05/31 03:02:37;;;;;;;14.35;4.65;;;20.20;62.50;;;;;;5112793;28;20024;-76
2023/05/31 03:05:04;;;;;;;7.60;5.22;;;20.20;63.30;;;;;;5112818;28;20096;-75
2023/05/31 03:07:29;;;;;;;7.32;4.75;;;20.20;63.40;;;;;;5112782;28;20036;-73
2023/05/31 03:09:55;;;;;;;6.75;4.25;;;20.20;63.50;;;;;;5112744;28;20027;-74
2023/05/31 03:12:21;;;;;;;9.18;4.38;;;20.20;63.20;;;;;;5113102;28;20028;-76
2023/05/31 03:14:47;;;;;;;8.88;4.90;;;20.20;63.00;;;;;;5112878;28;20023;-78
2023/05/31 03:17:12;;;;;;;7.85;4.63;;;20.20;63.90;;;;;;5112965;28;20061;-79
2023/05/31 03:19:38;;;;;;;8.13;4.47;;;20.10;64.20;;;;;;5112937;28;20012;-78
2023/05/31 03:22:04;;;;;;;9.07;4.65;;;20.10;64.20;;;;;;5112463;28;20070;-77
2023/05/31 03:24:30;;;;;;;7.63;5.13;;;20.10;63.80;;;;;;5112695;28;20032;-78
2023/05/31 03:26:55;;;;;;;7.50;4.60;;;20.10;64.90;;;;;;5112933;28;20046;-78
2023/05/31 03:29:22;;;;;;;9.88;4.10;;;20.00;65.40;;;;;;5113030;28;20036;-79
2023/05/31 03:31:48;;;;;;;8.70;4.38;;;20.00;64.90;;;;;;5116077;28;20015;-76
2023/05/31 03:34:14;;;;;;;5.32;3.60;;;20.00;64.30;;;;;;5116771;28;20093;-75
2023/05/31 03:36:40;;;;;;;7.18;3.97;;;20.10;63.90;;;;;;5116313;28;20463;-77
2023/05/31 03:39:05;;;;;;;7.18;3.90;;;20.00;63.90;;;;;;5116136;28;20099;-74
2023/05/31 03:41:31;;;;;;;8.18;3.80;;;20.10;63.70;;;;;;5116183;28;20024;-73
2023/05/31 03:43:57;;;;;;;6.38;4.10;;;20.10;62.70;;;;;;5116498;28;20423;-77
2023/05/31 03:46:23;;;;;;;8.18;3.92;;;20.10;62.40;;;;;;5116211;28;20023;-76
2023/05/31 03:48:49;;;;;;;8.82;4.35;;;20.10;62.30;;;;;;5116261;28;20055;-77
2023/05/31 03:51:16;;;;;;;9.38;4.00;;;20.10;62.00;;;;;;5116092;28;20506;-74
2023/05/31 03:53:41;;;;;;;8.73;4.00;;;20.10;61.80;;;;;;5116034;28;20505;-79
2023/05/31 03:56:07;;;;;;;12.43;4.88;;;20.10;62.10;;;;;;5115819;28;20039;-78
2023/05/31 03:58:33;;;;;;;12.50;4.00;;;20.10;62.10;;;;;;5116081;28;20028;-74
2023/05/31 04:00:58;;;;;;;9.02;4.57;;;20.10;62.00;;;;;;5097570;28;20510;-74
2023/05/31 04:03:25;;;;;;;7.80;4.10;;;20.10;62.10;;;;;;5115863;28;20039;-77
2023/05/31 04:05:50;;;;;;;7.03;4.10;;;20.10;62.60;;;;;;5115910;28;20011;-76
2023/05/31 04:08:16;;;;;;;10.18;3.95;;;20.10;63.10;;;;;;5115320;28;20038;-73
2023/05/31 04:10:42;;;;;;;9.00;4.50;;;20.10;63.10;;;;;;5115714;28;20106;-78
2023/05/31 04:13:08;;;;;;;16.63;5.25;;;20.10;63.10;;;;;;5115458;28;20098;-79
2023/05/31 04:15:33;;;;;;;11.70;5.03;;;20.10;63.40;;;;;;5115181;28;20034;-76
2023/05/31 04:17:59;;;;;;;18.05;5.07;;;20.10;63.80;;;;;;5115331;28;20067;-75
2023/05/31 04:20:25;;;;;;;15.68;5.70;;;20.10;64.30;;;;;;5115312;28;20428;-73
2023/05/31 04:22:53;;;;;;;11.75;5.20;;;20.10;64.80;;;;;;5114992;28;20143;-75
2023/05/31 04:25:19;;;;;;;11.50;5.38;;;20.10;65.80;;;;;;5115641;28;20368;-75
2023/05/31 04:27:46;;;;;;;16.48;5.30;;;20.20;66.70;;;;;;5115254;28;20027;-76
2023/05/31 04:30:12;;;;;;;12.90;5.47;;;20.10;66.30;;;;;;5115288;28;20032;-75
2023/05/31 04:32:39;;;;;;;17.48;5.80;;;20.10;68.10;;;;;;5115382;28;20035;-76
2023/05/31 04:35:06;;;;;;;19.05;5.30;;;20.00;68.10;;;;;;5096803;28;20027;-75
2023/05/31 04:37:32;;;;;;;13.13;5.22;;;20.00;67.80;;;;;;5114153;28;20403;-74
2023/05/31 04:39:59;;;;;;;16.15;5.38;;;20.00;68.00;;;;;;5113514;28;20019;-74
2023/05/31 04:42:25;;;;;;;11.02;5.40;;;20.00;68.60;;;;;;5113871;28;20024;-72
2023/05/31 04:44:57;;;;;;;20.40;6.13;;;20.00;68.80;;;;;;5115546;28;20031;-74
2023/05/31 04:47:24;;;;;;;36.33;5.75;;;20.00;68.80;;;;;;5113814;28;20107;-74
2023/05/31 04:49:50;;;;;;;12.27;4.90;;;20.00;68.10;;;;;;5114564;28;20019;-75
2023/05/31 04:52:16;;;;;;;22.27;5.20;;;20.00;67.60;;;;;;5114144;28;20016;-75
2023/05/31 04:54:42;;;;;;;9.63;4.95;;;20.00;68.30;;;;;;5114679;28;20038;-75
2023/05/31 04:57:07;;;;;;;15.43;4.95;;;20.00;67.90;;;;;;5114476;28;20080;-72
2023/05/31 04:59:33;;;;;;;9.93;4.22;;;20.00;67.50;;;;;;5113648;28;20503;-73
2023/05/31 05:01:59;;;;;;;17.20;4.95;;;20.10;67.50;;;;;;5113541;28;20024;-73
2023/05/31 05:04:24;;;;;;;27.92;5.18;;;20.00;67.30;;;;;;5113390;28;20035;-75
2023/05/31 05:06:50;;;;;;;26.05;5.43;;;20.10;67.60;;;;;;5112067;28;20376;-75
2023/05/31 05:09:16;;;;;;;15.80;5.10;;;20.10;67.20;;;;;;5114407;28;20042;-76
2023/05/31 05:11:42;;;;;;;23.45;5.13;;;20.10;66.60;;;;;;5114303;28;20031;-74
2023/05/31 05:14:09;;;;;;;12.32;4.80;;;20.10;67.00;;;;;;5114129;28;20069;-74
2023/05/31 05:16:34;;;;;;;18.50;4.68;;;20.20;65.90;;;;;;5113866;28;20094;-76
2023/05/31 05:19:00;;;;;;;17.13;4.90;;;20.20;66.30;;;;;;5113254;28;20143;-75
2023/05/31 05:21:26;;;;;;;12.90;4.30;;;20.20;67.50;;;;;;5114047;28;20027;-75
2023/05/31 05:23:52;;;;;;;10.90;4.72;;;20.20;66.70;;;;;;5114079;28;20043;-75
2023/05/31 05:26:17;;;;;;;10.35;4.53;;;20.20;66.60;;;;;;5114184;28;20062;-75
2023/05/31 05:28:43;;;;;;;9.20;4.47;;;20.20;67.20;;;;;;5114363;28;20019;-72
2023/05/31 05:31:08;;;;;;;12.90;4.18;;;20.30;68.10;;;;;;5114226;28;20380;-75
2023/05/31 05:33:35;;;;;;;16.67;4.53;;;20.30;67.60;;;;;;5113738;28;20535;-78
2023/05/31 05:36:02;;;;;;;17.67;3.90;;;20.40;67.60;;;;;;5114036;28;20380;-72
2023/05/31 05:38:27;;;;;;;11.48;4.28;;;20.40;67.20;;;;;;5096178;28;20054;-74
2023/05/31 05:40:53;;;;;;;9.25;3.72;;;20.40;66.50;;;;;;5114021;28;20413;-74
2023/05/31 05:43:19;;;;;;;12.38;3.88;;;20.40;65.60;;;;;;5113272;28;20051;-75
2023/05/31 05:45:44;;;;;;;31.40;4.93;;;20.50;65.00;;;;;;5113858;28;20034;-74
2023/05/31 05:48:10;;;;;;;12.45;3.55;;;20.50;65.00;;;;;;5113794;28;20424;-76
2023/05/31 05:50:36;;;;;;;7.70;2.97;;;20.60;64.30;;;;;;5112305;28;20079;-74
2023/05/31 05:53:01;;;;;;;8.05;3.63;;;20.60;63.70;;;;;;5113392;28;20472;-75
2023/05/31 05:55:27;;;;;;;9.15;3.20;;;20.70;63.60;;;;;;5113445;28;20051;-73
2023/05/31 05:57:53;;;;;;;12.65;4.53;;;20.70;63.50;;;;;;5113440;28;20019;-75
2023/05/31 06:00:20;;;;;;;9.25;3.58;;;20.70;63.20;;;;;;5113498;28;20483;-75
2023/05/31 06:02:45;;;;;;;7.78;3.20;;;20.80;63.00;;;;;;5113409;28;20085;-78
2023/05/31 06:05:12;;;;;;;10.05;3.70;;;20.80;63.00;;;;;;5113414;28;20043;-74
2023/05/31 06:07:38;;;;;;;9.40;3.78;;;20.80;62.80;;;;;;5113506;28;20043;-74
2023/05/31 06:10:04;;;;;;;15.52;4.15;;;20.90;62.90;;;;;;5113171;28;20509;-74
2023/05/31 06:12:32;;;;;;;8.07;3.58;;;20.90;63.20;;;;;;5113505;28;20360;-72
2023/05/31 06:14:58;;;;;;;9.52;4.15;;;20.90;62.70;;;;;;5113701;28;20027;-75
2023/05/31 06:17:23;;;;;;;10.52;3.75;;;20.90;62.20;;;;;;5113217;28;20475;-75
2023/05/31 06:19:49;;;;;;;7.60;3.92;;;21.00;62.40;;;;;;5095109;28;20107;-74
2023/05/31 06:22:16;;;;;;;8.70;3.92;;;21.00;61.70;;;;;;5113333;28;20047;-74
2023/05/31 06:24:42;;;;;;;16.83;3.90;;;21.00;61.90;;;;;;5112802;28;20039;-74
2023/05/31 06:27:08;;;;;;;9.25;3.60;;;21.00;61.90;;;;;;5113167;28;20061;-72
2023/05/31 06:29:34;;;;;;;8.32;3.90;;;21.00;60.80;;;;;;5113341;28;20028;-72
2023/05/31 06:31:59;;;;;;;7.75;3.58;;;21.10;60.70;;;;;;5113352;28;20092;-72
2023/05/31 06:34:25;;;;;;;7.43;3.75;;;21.10;60.90;;;;;;5113390;28;20023;-73
2023/05/31 06:36:51;;;;;;;12.32;3.53;;;21.10;60.60;;;;;;5113436;28;20599;-76
2023/05/31 06:39:16;;;;;;;8.15;3.25;;;21.20;60.40;;;;;;5113450;28;20023;-80
2023/05/31 06:41:42;;;;;;;7.05;3.10;;;21.20;59.30;;;;;;5113534;28;20024;-78
2023/05/31 06:44:08;;;;;;;8.88;3.50;;;21.20;59.60;;;;;;5112917;28;20088;-74
2023/05/31 06:46:33;;;;;;;11.18;3.50;;;21.30;59.60;;;;;;5113031;28;20016;-75
2023/05/31 06:48:59;;;;;;;7.40;3.22;;;21.30;59.40;;;;;;5112880;28;20027;-73
2023/05/31 06:51:25;;;;;;;8.45;3.65;;;21.40;59.70;;;;;;5094979;28;20026;-72
2023/05/31 06:53:51;;;;;;;6.00;3.35;;;21.50;59.80;;;;;;5113282;28;20027;-74
2023/05/31 06:56:17;;;;;;;8.35;3.22;;;21.50;59.00;;;;;;5112989;28;20108;-73
2023/05/31 06:58:43;;;;;;;6.85;4.00;;;21.60;57.00;;;;;;5113075;28;20088;-72
2023/05/31 07:01:08;;;;;;;13.43;3.47;;;21.60;56.30;;;;;;5113033;28;20052;-73
2023/05/31 07:03:34;;;;;;;7.13;3.00;;;21.60;56.30;;;;;;5113101;28;20074;-72
2023/05/31 07:06:00;;;;;;;8.27;3.13;;;21.70;56.30;;;;;;5115566;28;20398;-72
2023/05/31 07:08:26;;;;;;;11.50;4.03;;;21.80;55.90;;;;;;5116971;28;20034;-73
2023/05/31 07:10:52;;;;;;;13.23;3.60;;;21.80;55.80;;;;;;5098894;28;20016;-72
2023/05/31 07:13:18;;;;;;;9.05;3.10;;;21.90;55.90;;;;;;5117058;28;20027;-73
2023/05/31 07:15:44;;;;;;;9.18;3.55;;;21.90;55.90;;;;;;5116731;28;20020;-73
2023/05/31 07:18:10;;;;;;;6.00;3.20;;;22.00;54.90;;;;;;5116556;28;20375;-74
2023/05/31 07:20:35;;;;;;;11.82;3.55;;;22.00;54.70;;;;;;5116655;28;20024;-73
2023/05/31 07:23:01;;;;;;;13.52;3.60;;;22.10;54.90;;;;;;5116344;28;20051;-74
2023/05/31 07:25:26;;;;;;;6.07;3.08;;;22.10;54.40;;;;;;5116683;28;20507;-73
2023/05/31 07:27:52;;;;;;;6.40;3.60;;;22.10;53.60;;;;;;5116718;28;20451;-75
2023/05/31 07:30:20;;;;;;;9.25;3.50;;;22.20;53.60;;;;;;5116507;28;20016;-74
2023/05/31 07:32:45;;;;;;;7.25;2.95;;;22.30;54.40;;;;;;5116185;28;20023;-72
2023/05/31 07:35:11;;;;;;;7.63;3.15;;;22.30;54.70;;;;;;5097963;28;20031;-72
2023/05/31 07:37:37;;;;;;;6.45;3.70;;;22.30;54.80;;;;;;5116290;28;20102;-72
2023/05/31 07:40:05;;;;;;;5.68;3.38;;;22.40;55.10;;;;;;5116309;28;20058;-76
2023/05/31 07:42:31;;;;;;;9.20;3.97;;;22.40;55.40;;;;;;5116555;28;20344;-77
2023/05/31 07:44:57;;;;;;;13.23;3.80;;;22.40;53.40;;;;;;5116125;28;20020;-75
2023/05/31 07:47:23;;;;;;;9.32;4.03;;;22.40;52.70;;;;;;5116150;28;20016;-76
2023/05/31 07:49:51;;;;;;;9.40;4.63;;;22.40;52.60;;;;;;5116065;28;20024;-76
2023/05/31 07:52:21;;;;;;;6.70;3.53;;;22.40;51.60;;;;;;5097766;28;20494;-75
2023/05/31 07:54:48;;;;;;;6.85;3.80;;;22.40;51.80;;;;;;5116054;28;20490;-75
2023/05/31 07:57:14;;;;;;;6.68;3.70;;;22.40;52.60;;;;;;5115724;28;20024;-72
2023/05/31 07:59:39;;;;;;;9.43;3.78;;;22.40;52.50;;;;;;5115846;28;20023;-74
2023/05/31 08:02:05;;;;;;;6.82;3.80;;;22.50;52.80;;;;;;5115720;28;20026;-75
2023/05/31 08:04:31;;;;;;;6.07;3.55;;;22.50;53.00;;;;;;5115824;28;20039;-74
2023/05/31 08:06:57;;;;;;;9.55;3.42;;;22.60;51.80;;;;;;5115916;28;20032;-74
2023/05/31 08:09:23;;;;;;;4.70;3.03;;;22.60;51.90;;;;;;5131643;22;20034;-71
2023/05/31 08:11:48;;;;;;;8.90;3.80;;;22.70;51.60;;;;;;5114275;28;20024;-73
2023/05/31 08:14:14;;;;;;;12.40;4.00;;;22.70;51.80;;;;;;5115253;28;20020;-73
2023/05/31 08:16:40;;;;;;;12.30;3.92;;;22.80;52.60;;;;;;5115231;28;20016;-73
2023/05/31 08:19:06;;;;;;;10.88;4.03;;;22.90;52.30;;;;;;5115457;28;20490;-73
2023/05/31 08:21:31;;;;;;;12.75;3.78;;;22.90;52.40;;;;;;5097109;28;20024;-72
2023/05/31 08:23:58;;;;;;;8.98;3.67;;;23.00;52.30;;;;;;5115293;28;20038;-73
2023/05/31 08:26:25;;;;;;;9.55;4.10;;;23.00;52.30;;;;;;5115234;28;20420;-72
2023/05/31 08:28:51;;;;;;;8.32;3.67;;;23.00;52.90;;;;;;5114912;28;20028;-73
2023/05/31 08:31:17;;;;;;;8.77;3.65;;;23.10;52.10;;;;;;5115193;28;20375;-73
2023/05/31 08:33:56;;;;;;;11.13;4.18;;;23.00;51.40;;;;;;5115196;28;20024;-73
2023/05/31 08:36:23;;;;;;;8.40;4.25;;;23.00;52.10;;;;;;5114981;28;20467;-71
2023/05/31 08:38:49;;;;;;;9.05;3.45;;;23.00;51.70;;;;;;5114826;28;20080;-73
2023/05/31 08:41:16;;;;;;;8.75;3.88;;;23.00;51.50;;;;;;5114766;28;20019;-73
2023/05/31 08:43:43;;;;;;;9.43;4.13;;;23.00;51.40;;;;;;5114894;28;20088;-73
2023/05/31 08:46:10;;;;;;;8.88;3.70;;;22.90;51.60;;;;;;5114902;28;20118;-73
2023/05/31 08:48:49;;;;;;;11.05;4.35;;;22.80;51.80;;;;;;5115697;28;20384;-73
2023/05/31 08:51:16;;;;;;;8.38;3.80;;;22.80;51.40;;;;;;5115405;28;20046;-73
2023/05/31 08:53:43;;;;;;;18.17;4.00;;;22.80;52.00;;;;;;5097337;28;20414;-73
2023/05/31 08:56:10;;;;;;;9.55;4.13;;;22.70;52.10;;;;;;5115179;28;20140;-72
2023/05/31 08:58:43;;;;;;;8.80;3.90;;;22.70;52.50;;;;;;5097105;28;20024;-72
2023/05/31 09:01:57;;;;;;;12.25;4.93;;;22.70;52.60;;;;;;5114962;28;20333;-73
2023/05/31 09:04:43;;;;;;;7.40;4.28;;;22.70;52.40;;;;;;5040528;28;20049;-73
2023/05/31 09:20:39;;;;;;;14.02;3.90;;;22.80;54.10;;;;;;4986881;28;20068;-73
2023/05/31 09:23:12;;;;;;;7.07;3.95;;;23.00;54.90;;;;;;5068369;28;20484;-73
2023/05/31 09:25:51;;;;;;;8.50;3.90;;;23.10;55.40;;;;;;5089032;28;20024;-73
2023/05/31 09:28:21;;;;;;;9.48;4.10;;;23.30;55.50;;;;;;5073026;28;20115;-72
2023/05/31 09:31:07;;;;;;;7.72;4.13;;;23.30;54.40;;;;;;5073516;28;20499;-73
2023/05/31 09:33:43;;;;;;;5.25;4.00;;;23.40;53.80;;;;;;5073584;28;20071;-73
2023/05/31 09:36:11;;;;;;;11.40;4.45;;;23.40;53.40;;;;;;5073464;28;20028;-73
2023/05/31 09:38:37;;;;;;;8.88;4.25;;;23.40;53.10;;;;;;5073591;28;20047;-73
2023/05/31 09:41:20;;;;;;;8.40;4.45;;;23.40;53.20;;;;;;5073309;28;20031;-73
2023/05/31 09:43:48;;;;;;;8.43;4.38;;;23.40;53.70;;;;;;5072946;28;20036;-73
2023/05/31 09:46:15;;;;;;;11.50;4.95;;;23.30;54.00;;;;;;5071875;28;20020;-73
2023/05/31 09:48:42;;;;;;;12.73;4.75;;;23.30;54.00;;;;;;5072952;28;20365;-72
2023/05/31 09:51:11;;;;;;;12.02;5.68;;;23.30;54.30;;;;;;5072886;28;20028;-73
2023/05/31 09:53:45;;;;;;;10.90;5.03;;;23.30;54.70;;;;;;5072977;28;20028;-73
2023/05/31 09:56:17;;;;;;;14.27;4.97;;;23.20;54.60;;;;;;5072844;28;20028;-73
2023/05/31 09:58:43;;;;;;;;;;;23.20;54.90;;;;;;5073408;28;20017;-73
2023/05/31 10:01:09;;;;;;;8.93;4.95;;;23.20;55.00;;;;;;5072798;28;19958;-72
2023/05/31 10:03:36;;;;;;;12.32;4.93;;;23.20;55.10;;;;;;5072804;28;20511;-73
2023/05/31 10:06:03;;;;;;;13.63;6.25;;;23.20;54.90;;;;;;5072739;28;20027;-72
2023/05/31 10:08:32;;;;;;;8.38;5.20;;;23.20;55.00;;;;;;5072534;28;20099;-73
2023/05/31 10:11:03;;;;;;;7.03;4.55;;;23.10;54.80;;;;;;5072749;28;20112;-73
2023/05/31 10:13:30;;;;;;;8.15;4.85;;;23.10;54.90;;;;;;5104269;28;20491;-71
2023/05/31 10:16:02;;;;;;;10.07;5.30;;;23.10;55.20;;;;;;5112797;28;20068;-70
2023/05/31 10:18:30;;;;;;;;;;;23.10;55.10;;;;;;5113244;28;20024;-75
2023/05/31 10:21:03;;;;;;;6.78;4.80;;;23.10;55.10;;;;;;5113088;28;20320;-70
2023/05/31 10:23:33;;;;;;;9.73;4.82;;;23.10;55.20;;;;;;5112611;28;20036;-72
2023/05/31 10:26:08;;;;;;;7.32;4.72;;;23.00;55.70;;;;;;5112704;28;20424;-68
2023/05/31 10:28:44;;;;;;;12.77;4.55;;;23.00;55.80;;;;;;5112890;28;20023;-71
2023/05/31 10:31:11;;;;;;;10.70;5.10;;;23.00;55.60;;;;;;5113464;28;20043;-69
2023/05/31 10:33:45;;;;;;;10.50;5.05;;;23.00;55.90;;;;;;5112718;28;20099;-72
2023/05/31 10:36:11;;;;;;;8.88;4.70;;;22.90;56.00;;;;;;5113260;28;20031;-68
2023/05/31 10:38:48;;;;;;;8.05;5.30;;;22.90;56.10;;;;;;5112850;28;20039;-70
2023/05/31 10:48:28;;;;;;;6.97;4.40;;;22.80;56.10;;;;;;5053758;28;20120;-68
2023/05/31 10:51:49;;;;;;;8.00;4.63;;;22.80;56.00;;;;;;5034141;28;20124;-69
2023/05/31 10:58:43;;;;;;;18.42;6.63;;;22.80;56.20;;;;;;5034173;28;20095;-71
2023/05/31 11:04:52;;;;;;;9.25;4.65;;;22.80;55.90;;;;;;4968918;28;20077;-73
2023/05/31 11:07:25;;;;;;;7.43;4.82;;;22.80;56.30;;;;;;5033950;28;20067;-69
2023/05/31 11:09:56;;;;;;;7.85;4.68;;;22.80;56.70;;;;;;5114629;28;20063;-72
2023/05/31 11:12:36;;;;;;;7.22;4.80;;;22.80;57.00;;;;;;5116266;28;20050;-70
2023/05/31 11:15:11;;;;;;;6.47;4.50;;;22.80;56.80;;;;;;5098129;28;20372;-72
2023/05/31 11:17:51;;;;;;;7.18;4.63;;;22.80;56.60;;;;;;5098018;28;20375;-70
2023/05/31 11:20:17;;;;;;;7.80;4.50;;;22.90;57.20;;;;;;5116277;28;20027;-72
2023/05/31 11:22:43;;;;;;;8.80;4.60;;;22.90;57.30;;;;;;5116382;28;20059;-70
2023/05/31 11:25:21;;;;;;;7.05;4.78;;;22.90;57.00;;;;;;5116649;28;20103;-72
2023/05/31 11:27:49;;;;;;;7.07;4.70;;;23.00;56.70;;;;;;5097870;28;20027;-73
2023/05/31 11:30:16;;;;;;;8.65;4.68;;;23.00;56.60;;;;;;5116361;28;20023;-73
2023/05/31 11:32:42;;;;;;;8.93;5.28;;;23.00;56.10;;;;;;5116143;28;20024;-79
2023/05/31 11:35:14;;;;;;;14.82;5.30;;;22.90;56.60;;;;;;5115934;28;20517;-73
2023/05/31 11:37:42;;;;;;;8.90;5.10;;;23.00;56.90;;;;;;5115977;28;20038;-74
2023/05/31 11:40:10;;;;;;;7.03;4.53;;;23.00;56.40;;;;;;5115934;28;20031;-71
2023/05/31 11:42:37;;;;;;;9.27;4.90;;;23.00;56.60;;;;;;5115778;28;20012;-70
2023/05/31 11:45:14;;;;;;;6.80;4.88;;;23.00;56.80;;;;;;5115938;28;20038;-69
2023/05/31 11:47:48;;;;;;;13.55;4.78;;;23.10;57.00;;;;;;5115767;28;20020;-72
2023/05/31 11:50:17;;;;;;;10.98;5.00;;;23.10;57.10;;;;;;5115611;28;20067;-72
2023/05/31 11:52:44;;;;;;;8.93;4.75;;;23.10;56.90;;;;;;5114988;28;20521;-71
2023/05/31 11:55:11;;;;;;;7.80;5.03;;;23.10;56.80;;;;;;5115028;28;20106;-70
2023/05/31 11:57:44;;;;;;;8.82;5.57;;;23.20;56.80;;;;;;5115419;28;20019;-71
2023/05/31 12:00:12;;;;;;;7.50;4.78;;;23.20;56.90;;;;;;5115360;28;20032;-70
2023/05/31 12:02:46;;;;;;;6.75;4.80;;;23.20;57.00;;;;;;5115259;28;20106;-73
2023/05/31 12:05:13;;;;;;;9.38;4.88;;;23.30;57.20;;;;;;5115550;28;20432;-71
2023/05/31 12:07:39;;;;;;;7.70;5.10;;;23.30;56.90;;;;;;5116060;28;20364;-75
2023/05/31 12:10:06;;;;;;;8.30;4.60;;;23.40;57.10;;;;;;5115868;28;20099;-69
2023/05/31 12:12:33;;;;;;;10.68;5.32;;;23.40;57.40;;;;;;5116091;28;20047;-68
2023/05/31 12:15:01;;;;;;;8.63;5.30;;;23.50;57.60;;;;;;5115802;28;20028;-70
2023/05/31 12:17:33;;;;;;;9.52;5.03;;;23.60;57.60;;;;;;5116012;28;20526;-70
2023/05/31 12:24:02;;;;;;;10.30;4.97;;;23.70;57.60;;;;;;5012956;28;19920;-69
2023/05/31 12:30:35;;;;;;;11.13;5.20;;;23.70;58.20;;;;;;4955062;29;20142;-71
2023/05/31 12:33:11;;;;;;;;;;;23.70;57.10;;;;;;4897525;29;20036;-70
2023/05/31 12:42:40;;;;;;;8.38;5.18;;;23.70;56.80;;;;;;4778345;29;20032;-69
2023/05/31 12:45:07;;;;;;;7.82;5.13;;;23.80;56.10;;;;;;4889029;29;20041;-71
2023/05/31 12:47:40;;;;;;;8.93;5.30;;;23.80;55.90;;;;;;4928316;28;20048;-73
2023/05/31 12:50:07;;;;;;;11.70;5.50;;;23.70;56.00;;;;;;5069944;28;20368;-71
2023/05/31 12:52:34;;;;;;;8.18;5.50;;;23.80;56.70;;;;;;5114975;28;20433;-69
2023/05/31 12:55:01;;;;;;;15.57;5.63;;;23.80;57.10;;;;;;5114943;28;20019;-70
2023/05/31 12:57:27;;;;;;;6.68;5.10;;;23.90;57.00;;;;;;5096644;28;20444;-69
2023/05/31 13:00:12;;;;;;;6.30;5.30;;;23.90;56.80;;;;;;5114221;28;20032;-69
2023/05/31 13:02:39;;;;;;;8.38;5.28;;;24.00;56.90;;;;;;5113046;28;20031;-73
2023/05/31 13:05:05;;;;;;;11.68;5.28;;;24.00;57.00;;;;;;5114572;28;20031;-72
2023/05/31 13:07:32;;;;;;;11.00;5.53;;;24.10;56.90;;;;;;5114266;28;20030;-75
2023/05/31 13:09:58;;;;;;;8.57;5.22;;;24.20;57.20;;;;;;5114032;28;20548;-74
2023/05/31 13:12:23;;;;;;;7.88;5.45;;;24.20;57.60;;;;;;5113981;28;20040;-69
2023/05/31 13:14:51;;;;;;;8.98;5.38;;;24.20;58.00;;;;;;5114351;28;20019;-73
2023/05/31 13:17:18;;;;;;;9.07;5.00;;;24.30;57.00;;;;;;5114038;28;20469;-70
2023/05/31 13:19:43;;;;;;;7.55;4.93;;;24.30;56.40;;;;;;5114057;28;20023;-72
2023/05/31 13:22:09;;;;;;;8.40;4.97;;;24.30;55.80;;;;;;5113983;28;20096;-71
2023/05/31 13:24:35;;;;;;;8.27;4.82;;;24.30;56.10;;;;;;5113674;28;20035;-69
2023/05/31 13:27:03;;;;;;;8.48;5.55;;;24.30;55.80;;;;;;5112452;28;20028;-69
2023/05/31 13:29:29;;;;;;;14.75;4.40;;;24.30;55.70;;;;;;5113582;28;20079;-69
2023/05/31 13:31:55;;;;;;;8.60;4.28;;;24.30;55.70;;;;;;5113772;28;20027;-69